sensor_id;sensor_type;location;lat;lon;timestamp;pressure;altitude;pressure_sealevel;temperature;humidity
77603;BME280;66771;52.434;17.056;2023-04-25T00:02:12;99548.32;;;8.44;72.94
77603;BME280;66771;52.434;17.056;2023-04-25T00:04:40;99549.20;;;8.38;72.79
77603;BME280;66771;52.434;17.056;2023-04-25T00:07:10;99547.48;;;8.32;72.73
77603;BME280;66771;52.434;17.056;2023-04-25T00:09:38;99546.73;;;8.26;72.55
77603;BME280;66771;52.434;17.056;2023-04-25T00:12:08;99546.32;;;8.20;72.39
77603;BME280;66771;52.434;17.056;2023-04-25T00:14:37;99549.32;;;8.17;72.23
77603;BME280;66771;52.434;17.056;2023-04-25T00:17:16;99548.10;;;8.10;72.28
77603;BME280;66771;52.434;17.056;2023-04-25T00:19:43;99535.55;;;7.95;72.04
77603;BME280;66771;52.434;17.056;2023-04-25T00:22:13;99551.53;;;7.99;71.71
77603;BME280;66771;52.434;17.056;2023-04-25T00:24:43;99549.81;;;7.94;71.86
77603;BME280;66771;52.434;17.056;2023-04-25T00:27:10;99553.58;;;7.90;71.64
77603;BME280;66771;52.434;17.056;2023-04-25T00:29:37;99557.88;;;7.84;71.75
77603;BME280;66771;52.434;17.056;2023-04-25T00:32:04;99559.73;;;7.78;71.46
77603;BME280;66771;52.434;17.056;2023-04-25T00:34:32;99558.45;;;7.74;71.51
77603;BME280;66771;52.434;17.056;2023-04-25T00:37:00;99557.81;;;7.69;71.39
77603;BME280;66771;52.434;17.056;2023-04-25T00:39:34;99557.39;;;7.63;71.48
77603;BME280;66771;52.434;17.056;2023-04-25T00:42:02;99556.25;;;7.58;71.35
77603;BME280;66771;52.434;17.056;2023-04-25T00:44:40;99558.91;;;7.56;71.28
77603;BME280;66771;52.434;17.056;2023-04-25T00:47:08;99562.55;;;7.55;71.45
77603;BME280;66771;52.434;17.056;2023-04-25T00:49:38;99561.05;;;7.51;71.38
77603;BME280;66771;52.434;17.056;2023-04-25T00:52:05;99564.43;;;7.50;71.40
77603;BME280;66771;52.434;17.056;2023-04-25T00:54:37;99565.09;;;7.46;71.30
77603;BME280;66771;52.434;17.056;2023-04-25T00:57:04;99571.31;;;7.42;71.52
77603;BME280;66771;52.434;17.056;2023-04-25T00:59:31;99570.06;;;7.36;71.40
77603;BME280;66771;52.434;17.056;2023-04-25T01:02:02;99571.16;;;7.33;71.32
77603;BME280;66771;52.434;17.056;2023-04-25T01:04:33;99572.67;;;7.34;71.51
77603;BME280;66771;52.434;17.056;2023-04-25T01:06:59;99575.38;;;7.36;71.49
77603;BME280;66771;52.434;17.056;2023-04-25T01:09:27;99570.34;;;7.34;71.36
77603;BME280;66771;52.434;17.056;2023-04-25T01:11:54;99570.06;;;7.33;71.51
77603;BME280;66771;52.434;17.056;2023-04-25T01:14:21;99569.89;;;7.31;71.65
77603;BME280;66771;52.434;17.056;2023-04-25T01:16:47;99568.92;;;7.29;71.59
77603;BME280;66771;52.434;17.056;2023-04-25T01:19:16;99566.52;;;7.26;71.61
77603;BME280;66771;52.434;17.056;2023-04-25T01:21:46;99569.11;;;7.25;71.72
77603;BME280;66771;52.434;17.056;2023-04-25T01:24:13;99566.34;;;7.24;71.76
77603;BME280;66771;52.434;17.056;2023-04-25T01:26:42;99567.30;;;7.25;71.85
77603;BME280;66771;52.434;17.056;2023-04-25T01:29:20;99563.54;;;7.25;71.82
77603;BME280;66771;52.434;17.056;2023-04-25T01:31:47;99567.95;;;7.24;71.93
77603;BME280;66771;52.434;17.056;2023-04-25T01:34:14;99567.02;;;7.22;71.92
77603;BME280;66771;52.434;17.056;2023-04-25T01:36:41;99568.84;;;7.19;71.93
77603;BME280;66771;52.434;17.056;2023-04-25T01:39:09;99571.48;;;7.18;71.85
77603;BME280;66771;52.434;17.056;2023-04-25T01:41:36;99567.55;;;7.18;71.91
77603;BME280;66771;52.434;17.056;2023-04-25T01:44:03;99573.46;;;7.22;71.94
77603;BME280;66771;52.434;17.056;2023-04-25T01:46:30;99574.52;;;7.27;71.85
77603;BME280;66771;52.434;17.056;2023-04-25T01:48:57;99579.89;;;7.28;71.84
77603;BME280;66771;52.434;17.056;2023-04-25T01:51:23;99579.62;;;7.25;71.70
77603;BME280;66771;52.434;17.056;2023-04-25T01:53:50;99579.13;;;7.20;71.77
77603;BME280;66771;52.434;17.056;2023-04-25T01:56:18;99578.14;;;7.15;71.89
77603;BME280;66771;52.434;17.056;2023-04-25T01:58:45;99582.11;;;7.12;71.97
77603;BME280;66771;52.434;17.056;2023-04-25T02:01:45;99582.35;;;7.09;71.93
77603;BME280;66771;52.434;17.056;2023-04-25T02:04:16;99582.77;;;7.06;72.00
77603;BME280;66771;52.434;17.056;2023-04-25T02:06:44;99581.95;;;7.03;72.17
77603;BME280;66771;52.434;17.056;2023-04-25T02:09:11;99581.17;;;7.00;72.42
77603;BME280;66771;52.434;17.056;2023-04-25T02:11:43;99582.27;;;6.95;72.47
77603;BME280;66771;52.434;17.056;2023-04-25T02:14:26;99582.19;;;6.89;72.62
77603;BME280;66771;52.434;17.056;2023-04-25T02:17:02;99584.92;;;6.86;72.87
77603;BME280;66771;52.434;17.056;2023-04-25T02:19:30;99585.69;;;6.83;72.74
77603;BME280;66771;52.434;17.056;2023-04-25T02:21:57;99585.95;;;6.82;72.94
77603;BME280;66771;52.434;17.056;2023-04-25T02:24:24;99582.63;;;6.81;73.16
77603;BME280;66771;52.434;17.056;2023-04-25T02:26:51;99581.96;;;6.80;73.28
77603;BME280;66771;52.434;17.056;2023-04-25T02:29:19;99581.18;;;6.81;73.17
77603;BME280;66771;52.434;17.056;2023-04-25T02:31:45;99580.21;;;6.82;73.45
77603;BME280;66771;52.434;17.056;2023-04-25T02:34:12;99580.09;;;6.81;73.47
77603;BME280;66771;52.434;17.056;2023-04-25T02:36:39;99586.42;;;6.80;73.46
77603;BME280;66771;52.434;17.056;2023-04-25T02:39:06;99587.44;;;6.81;73.58
77603;BME280;66771;52.434;17.056;2023-04-25T02:41:33;99585.80;;;6.81;73.63
77603;BME280;66771;52.434;17.056;2023-04-25T02:43:59;99586.04;;;6.83;73.59
77603;BME280;66771;52.434;17.056;2023-04-25T02:46:26;99586.73;;;6.81;73.56
77603;BME280;66771;52.434;17.056;2023-04-25T02:48:53;99587.15;;;6.78;73.60
77603;BME280;66771;52.434;17.056;2023-04-25T02:51:20;99587.69;;;6.73;73.60
77603;BME280;66771;52.434;17.056;2023-04-25T02:53:46;99587.09;;;6.70;73.65
77603;BME280;66771;52.434;17.056;2023-04-25T02:56:13;99584.31;;;6.67;73.61
77603;BME280;66771;52.434;17.056;2023-04-25T02:58:39;99582.43;;;6.63;73.61
77603;BME280;66771;52.434;17.056;2023-04-25T03:01:06;99575.47;;;6.60;73.67
77603;BME280;66771;52.434;17.056;2023-04-25T03:03:33;99572.55;;;6.57;73.74
77603;BME280;66771;52.434;17.056;2023-04-25T03:06:00;99569.58;;;6.52;73.70
77603;BME280;66771;52.434;17.056;2023-04-25T03:08:29;99572.92;;;6.45;74.00
77603;BME280;66771;52.434;17.056;2023-04-25T03:10:59;99573.03;;;6.39;74.05
77603;BME280;66771;52.434;17.056;2023-04-25T03:13:26;99572.60;;;6.35;73.91
77603;BME280;66771;52.434;17.056;2023-04-25T03:15:54;99572.93;;;6.33;74.10
77603;BME280;66771;52.434;17.056;2023-04-25T03:18:20;99577.39;;;6.33;74.07
77603;BME280;66771;52.434;17.056;2023-04-25T03:20:47;99574.16;;;6.34;74.32
77603;BME280;66771;52.434;17.056;2023-04-25T03:23:14;99572.82;;;6.32;74.17
77603;BME280;66771;52.434;17.056;2023-04-25T03:25:42;99573.23;;;6.29;74.22
77603;BME280;66771;52.434;17.056;2023-04-25T03:28:09;99574.36;;;6.24;74.26
77603;BME280;66771;52.434;17.056;2023-04-25T03:30:36;99569.89;;;6.17;74.46
77603;BME280;66771;52.434;17.056;2023-04-25T03:33:03;99571.39;;;6.11;74.48
77603;BME280;66771;52.434;17.056;2023-04-25T03:35:30;99570.42;;;6.06;74.58
77603;BME280;66771;52.434;17.056;2023-04-25T03:37:57;99573.55;;;6.02;74.63
77603;BME280;66771;52.434;17.056;2023-04-25T03:40:27;99575.52;;;6.00;74.70
77603;BME280;66771;52.434;17.056;2023-04-25T03:43:17;99567.77;;;5.91;74.84
77603;BME280;66771;52.434;17.056;2023-04-25T03:45:49;99574.92;;;5.88;74.90
77603;BME280;66771;52.434;17.056;2023-04-25T03:48:18;99570.65;;;5.83;75.23
77603;BME280;66771;52.434;17.056;2023-04-25T03:50:47;99573.95;;;5.80;75.25
77603;BME280;66771;52.434;17.056;2023-04-25T03:53:14;99571.27;;;5.79;75.52
77603;BME280;66771;52.434;17.056;2023-04-25T03:56:00;99578.09;;;5.82;75.56
77603;BME280;66771;52.434;17.056;2023-04-25T03:58:26;99584.49;;;5.84;75.52
77603;BME280;66771;52.434;17.056;2023-04-25T04:00:54;99585.17;;;5.84;75.57
77603;BME280;66771;52.434;17.056;2023-04-25T04:03:21;99587.06;;;5.88;75.45
77603;BME280;66771;52.434;17.056;2023-04-25T04:05:48;99583.10;;;5.88;75.71
77603;BME280;66771;52.434;17.056;2023-04-25T04:08:15;99585.96;;;5.91;75.59
77603;BME280;66771;52.434;17.056;2023-04-25T04:10:42;99587.23;;;5.93;75.77
77603;BME280;66771;52.434;17.056;2023-04-25T04:13:09;99590.17;;;6.00;75.87
77603;BME280;66771;52.434;17.056;2023-04-25T04:15:36;99591.92;;;6.07;75.82
77603;BME280;66771;52.434;17.056;2023-04-25T04:18:02;99593.73;;;6.14;75.86
77603;BME280;66771;52.434;17.056;2023-04-25T04:20:29;99594.65;;;6.20;75.76
77603;BME280;66771;52.434;17.056;2023-04-25T04:22:57;99595.73;;;6.27;75.81
77603;BME280;66771;52.434;17.056;2023-04-25T04:25:24;99599.77;;;6.33;75.71
77603;BME280;66771;52.434;17.056;2023-04-25T04:28:14;99600.05;;;6.43;75.62
77603;BME280;66771;52.434;17.056;2023-04-25T04:30:52;99599.21;;;6.50;75.55
77603;BME280;66771;52.434;17.056;2023-04-25T04:33:19;99603.05;;;6.60;75.71
77603;BME280;66771;52.434;17.056;2023-04-25T04:35:47;99605.04;;;6.74;75.45
77603;BME280;66771;52.434;17.056;2023-04-25T04:38:15;99608.48;;;6.82;75.49
77603;BME280;66771;52.434;17.056;2023-04-25T04:40:42;99610.71;;;6.92;75.61
77603;BME280;66771;52.434;17.056;2023-04-25T04:43:18;99613.81;;;7.03;75.39
77603;BME280;66771;52.434;17.056;2023-04-25T04:45:54;99618.94;;;7.13;75.38
77603;BME280;66771;52.434;17.056;2023-04-25T04:48:41;99617.06;;;7.25;74.96
77603;BME280;66771;52.434;17.056;2023-04-25T04:51:37;99617.78;;;7.41;74.92
77603;BME280;66771;52.434;17.056;2023-04-25T04:54:23;99617.95;;;7.54;74.91
77603;BME280;66771;52.434;17.056;2023-04-25T04:57:08;99620.98;;;7.67;74.69
77603;BME280;66771;52.434;17.056;2023-04-25T04:59:57;99613.72;;;7.77;74.48
77603;BME280;66771;52.434;17.056;2023-04-25T05:02:43;99615.45;;;7.87;74.35
77603;BME280;66771;52.434;17.056;2023-04-25T05:05:27;99616.60;;;8.01;74.30
77603;BME280;66771;52.434;17.056;2023-04-25T05:08:15;99614.27;;;8.12;73.84
77603;BME280;66771;52.434;17.056;2023-04-25T05:10:44;99613.59;;;8.22;73.58
77603;BME280;66771;52.434;17.056;2023-04-25T05:13:31;99610.58;;;8.37;73.80
77603;BME280;66771;52.434;17.056;2023-04-25T05:16:12;99608.96;;;8.49;73.42
77603;BME280;66771;52.434;17.056;2023-04-25T05:18:52;99609.60;;;8.59;73.20
77603;BME280;66771;52.434;17.056;2023-04-25T05:21:42;99616.84;;;8.73;72.63
77603;BME280;66771;52.434;17.056;2023-04-25T05:24:19;99615.62;;;8.79;72.25
77603;BME280;66771;52.434;17.056;2023-04-25T05:27:09;99614.05;;;8.88;71.91
77603;BME280;66771;52.434;17.056;2023-04-25T05:29:59;99611.14;;;8.97;71.64
77603;BME280;66771;52.434;17.056;2023-04-25T05:32:35;99607.99;;;9.06;71.33
77603;BME280;66771;52.434;17.056;2023-04-25T05:35:02;99606.92;;;9.19;71.60
77603;BME280;66771;52.434;17.056;2023-04-25T05:37:35;99608.94;;;9.36;71.18
77603;BME280;66771;52.434;17.056;2023-04-25T05:40:10;99611.43;;;9.51;70.86
77603;BME280;66771;52.434;17.056;2023-04-25T05:42:37;99611.94;;;9.61;70.55
77603;BME280;66771;52.434;17.056;2023-04-25T05:45:27;99603.58;;;9.70;70.40
77603;BME280;66771;52.434;17.056;2023-04-25T05:48:12;99611.60;;;9.89;69.80
77603;BME280;66771;52.434;17.056;2023-04-25T05:51:01;99610.93;;;9.94;69.24
77603;BME280;66771;52.434;17.056;2023-04-25T05:53:54;99617.58;;;9.98;68.99
77603;BME280;66771;52.434;17.056;2023-04-25T05:56:21;99615.33;;;9.95;68.42
77603;BME280;66771;52.434;17.056;2023-04-25T05:58:52;99607.09;;;9.89;68.37
77603;BME280;66771;52.434;17.056;2023-04-25T06:01:19;99619.92;;;9.92;68.24
77603;BME280;66771;52.434;17.056;2023-04-25T06:03:45;99618.70;;;9.90;68.04
77603;BME280;66771;52.434;17.056;2023-04-25T06:06:12;99622.84;;;9.91;68.01
77603;BME280;66771;52.434;17.056;2023-04-25T06:08:40;99621.30;;;9.91;68.07
77603;BME280;66771;52.434;17.056;2023-04-25T06:11:06;99622.41;;;9.92;67.66
77603;BME280;66771;52.434;17.056;2023-04-25T06:13:33;99622.79;;;9.94;68.06
77603;BME280;66771;52.434;17.056;2023-04-25T06:16:00;99619.42;;;10.05;67.92
77603;BME280;66771;52.434;17.056;2023-04-25T06:18:27;99624.22;;;10.22;68.03
77603;BME280;66771;52.434;17.056;2023-04-25T06:20:54;99623.30;;;10.45;67.60
77603;BME280;66771;52.434;17.056;2023-04-25T06:23:21;99625.04;;;10.67;67.27
77603;BME280;66771;52.434;17.056;2023-04-25T06:25:59;99624.36;;;10.76;66.19
77603;BME280;66771;52.434;17.056;2023-04-25T06:28:26;99624.21;;;10.85;66.49
77603;BME280;66771;52.434;17.056;2023-04-25T06:30:53;99621.23;;;10.96;66.26
77603;BME280;66771;52.434;17.056;2023-04-25T06:33:20;99621.11;;;11.09;66.11
77603;BME280;66771;52.434;17.056;2023-04-25T06:35:47;99622.73;;;11.20;66.16
77603;BME280;66771;52.434;17.056;2023-04-25T06:38:17;99624.95;;;11.28;65.09
77603;BME280;66771;52.434;17.056;2023-04-25T06:40:46;99620.73;;;11.24;64.57
77603;BME280;66771;52.434;17.056;2023-04-25T06:43:14;99621.60;;;11.28;65.15
77603;BME280;66771;52.434;17.056;2023-04-25T06:45:57;99618.09;;;11.31;64.32
77603;BME280;66771;52.434;17.056;2023-04-25T06:48:26;99616.80;;;11.25;64.27
77603;BME280;66771;52.434;17.056;2023-04-25T06:50:53;99619.91;;;11.23;64.07
77603;BME280;66771;52.434;17.056;2023-04-25T06:53:21;99617.31;;;11.15;63.96
77603;BME280;66771;52.434;17.056;2023-04-25T06:55:51;99618.37;;;11.11;63.70
77603;BME280;66771;52.434;17.056;2023-04-25T06:58:21;99616.75;;;11.11;63.25
77603;BME280;66771;52.434;17.056;2023-04-25T07:00:53;99613.98;;;11.11;63.34
77603;BME280;66771;52.434;17.056;2023-04-25T07:03:22;99613.66;;;11.17;63.51
77603;BME280;66771;52.434;17.056;2023-04-25T07:05:50;99616.09;;;11.25;63.37
77603;BME280;66771;52.434;17.056;2023-04-25T07:08:17;99615.71;;;11.36;63.42
77603;BME280;66771;52.434;17.056;2023-04-25T07:10:44;99615.20;;;11.48;63.24
77603;BME280;66771;52.434;17.056;2023-04-25T07:13:12;99613.64;;;11.60;63.54
77603;BME280;66771;52.434;17.056;2023-04-25T07:15:39;99619.71;;;11.73;62.41
77603;BME280;66771;52.434;17.056;2023-04-25T07:18:06;99619.64;;;11.79;62.67
77603;BME280;66771;52.434;17.056;2023-04-25T07:20:32;99612.41;;;11.86;62.57
77603;BME280;66771;52.434;17.056;2023-04-25T07:22:59;99615.95;;;11.87;62.14
77603;BME280;66771;52.434;17.056;2023-04-25T07:25:26;99622.45;;;11.86;62.30
77603;BME280;66771;52.434;17.056;2023-04-25T07:27:53;99624.77;;;11.88;61.69
77603;BME280;66771;52.434;17.056;2023-04-25T07:30:21;99622.03;;;11.84;61.53
77603;BME280;66771;52.434;17.056;2023-04-25T07:32:49;99626.42;;;11.87;62.04
77603;BME280;66771;52.434;17.056;2023-04-25T07:35:17;99628.73;;;11.92;61.76
77603;BME280;66771;52.434;17.056;2023-04-25T07:37:44;99623.95;;;11.91;61.34
77603;BME280;66771;52.434;17.056;2023-04-25T07:40:15;99626.73;;;11.95;61.63
77603;BME280;66771;52.434;17.056;2023-04-25T07:42:46;99627.48;;;12.11;61.48
77603;BME280;66771;52.434;17.056;2023-04-25T07:45:16;99630.36;;;12.19;61.13
77603;BME280;66771;52.434;17.056;2023-04-25T07:47:43;99628.73;;;12.20;61.02
77603;BME280;66771;52.434;17.056;2023-04-25T07:50:11;99627.73;;;12.32;60.69
77603;BME280;66771;52.434;17.056;2023-04-25T07:52:38;99628.06;;;12.32;60.18
77603;BME280;66771;52.434;17.056;2023-04-25T07:55:19;99624.98;;;12.29;60.44
77603;BME280;66771;52.434;17.056;2023-04-25T07:58:10;99627.11;;;12.31;59.61
77603;BME280;66771;52.434;17.056;2023-04-25T08:00:39;99626.17;;;12.19;59.59
77603;BME280;66771;52.434;17.056;2023-04-25T08:03:37;99630.73;;;12.17;59.59
77603;BME280;66771;52.434;17.056;2023-04-25T08:06:08;99626.22;;;12.15;59.83
77603;BME280;66771;52.434;17.056;2023-04-25T08:08:42;99627.06;;;12.30;59.68
77603;BME280;66771;52.434;17.056;2023-04-25T08:11:09;99625.69;;;12.47;59.61
77603;BME280;66771;52.434;17.056;2023-04-25T08:13:36;99632.27;;;12.52;59.01
77603;BME280;66771;52.434;17.056;2023-04-25T08:16:04;99637.44;;;12.48;59.29
77603;BME280;66771;52.434;17.056;2023-04-25T08:18:30;99636.28;;;12.47;59.27
77603;BME280;66771;52.434;17.056;2023-04-25T08:20:57;99628.25;;;12.45;58.57
77603;BME280;66771;52.434;17.056;2023-04-25T08:23:25;99633.52;;;12.48;57.78
77603;BME280;66771;52.434;17.056;2023-04-25T08:26:00;99633.69;;;12.52;58.55
77603;BME280;66771;52.434;17.056;2023-04-25T08:28:27;99631.50;;;12.75;59.23
77603;BME280;66771;52.434;17.056;2023-04-25T08:30:55;99637.13;;;12.89;58.85
77603;BME280;66771;52.434;17.056;2023-04-25T08:33:22;99641.44;;;12.96;58.24
77603;BME280;66771;52.434;17.056;2023-04-25T08:36:02;99642.66;;;12.96;57.46
77603;BME280;66771;52.434;17.056;2023-04-25T08:38:29;99645.69;;;13.00;57.20
77603;BME280;66771;52.434;17.056;2023-04-25T08:40:59;99648.59;;;13.07;57.30
77603;BME280;66771;52.434;17.056;2023-04-25T08:43:29;99643.44;;;13.13;57.31
77603;BME280;66771;52.434;17.056;2023-04-25T08:45:59;99644.64;;;13.17;57.05
77603;BME280;66771;52.434;17.056;2023-04-25T08:48:53;99645.04;;;13.22;56.33
77603;BME280;66771;52.434;17.056;2023-04-25T08:51:22;99643.38;;;13.22;56.58
77603;BME280;66771;52.434;17.056;2023-04-25T08:53:52;99642.77;;;13.23;56.68
77603;BME280;66771;52.434;17.056;2023-04-25T08:56:20;99646.58;;;13.30;56.40
77603;BME280;66771;52.434;17.056;2023-04-25T08:58:49;99648.58;;;13.23;55.93
77603;BME280;66771;52.434;17.056;2023-04-25T09:01:18;99654.41;;;13.07;56.54
77603;BME280;66771;52.434;17.056;2023-04-25T09:03:50;99649.70;;;12.86;56.40
77603;BME280;66771;52.434;17.056;2023-04-25T09:06:19;99653.68;;;12.79;56.86
77603;BME280;66771;52.434;17.056;2023-04-25T09:08:46;99656.91;;;12.82;56.55
77603;BME280;66771;52.434;17.056;2023-04-25T09:11:13;99662.77;;;12.92;56.96
77603;BME280;66771;52.434;17.056;2023-04-25T09:13:41;99668.61;;;13.07;56.59
77603;BME280;66771;52.434;17.056;2023-04-25T09:16:26;99670.65;;;13.20;56.10
77603;BME280;66771;52.434;17.056;2023-04-25T09:19:28;99675.13;;;13.09;55.96
77603;BME280;66771;52.434;17.056;2023-04-25T09:21:57;99675.71;;;12.89;56.02
77603;BME280;66771;52.434;17.056;2023-04-25T09:29:34;99682.52;;;12.34;56.64
77603;BME280;66771;52.434;17.056;2023-04-25T09:32:20;99680.02;;;12.30;57.02
77603;BME280;66771;52.434;17.056;2023-04-25T09:34:57;99682.73;;;12.34;57.19
77603;BME280;66771;52.434;17.056;2023-04-25T09:37:26;99682.41;;;12.39;57.44
77603;BME280;66771;52.434;17.056;2023-04-25T09:40:23;99682.67;;;12.60;57.45
77603;BME280;66771;52.434;17.056;2023-04-25T09:42:59;99686.59;;;12.89;57.54
77603;BME280;66771;52.434;17.056;2023-04-25T09:45:29;99685.80;;;13.26;56.97
77603;BME280;66771;52.434;17.056;2023-04-25T09:48:03;99683.73;;;13.50;55.93
77603;BME280;66771;52.434;17.056;2023-04-25T09:50:35;99684.61;;;13.45;54.34
77603;BME280;66771;52.434;17.056;2023-04-25T09:53:07;99689.88;;;13.33;53.89
77603;BME280;66771;52.434;17.056;2023-04-25T09:55:57;99685.17;;;13.43;54.46
77603;BME280;66771;52.434;17.056;2023-04-25T09:58:29;99692.04;;;13.48;53.54
77603;BME280;66771;52.434;17.056;2023-04-25T10:01:01;99694.80;;;13.25;53.59
77603;BME280;66771;52.434;17.056;2023-04-25T10:03:31;99696.77;;;13.00;54.01
77603;BME280;66771;52.434;17.056;2023-04-25T10:06:19;99698.97;;;12.75;53.31
77603;BME280;66771;52.434;17.056;2023-04-25T10:08:51;99695.77;;;12.59;54.18
77603;BME280;66771;52.434;17.056;2023-04-25T10:11:17;99698.72;;;12.60;54.33
77603;BME280;66771;52.434;17.056;2023-04-25T10:13:45;99699.46;;;12.60;53.98
77603;BME280;66771;52.434;17.056;2023-04-25T10:16:12;99704.98;;;12.64;54.17
77603;BME280;66771;52.434;17.056;2023-04-25T10:18:39;99706.55;;;12.71;54.14
77603;BME280;66771;52.434;17.056;2023-04-25T10:21:06;99708.71;;;12.75;54.38
77603;BME280;66771;52.434;17.056;2023-04-25T10:23:34;99705.38;;;12.80;54.23
77603;BME280;66771;52.434;17.056;2023-04-25T10:26:01;99707.67;;;12.76;54.57
77603;BME280;66771;52.434;17.056;2023-04-25T10:28:28;99703.20;;;12.76;55.12
77603;BME280;66771;52.434;17.056;2023-04-25T10:31:01;99702.47;;;12.74;54.66
77603;BME280;66771;52.434;17.056;2023-04-25T10:33:39;99706.41;;;12.71;54.93
77603;BME280;66771;52.434;17.056;2023-04-25T10:36:13;99703.80;;;12.79;54.15
77603;BME280;66771;52.434;17.056;2023-04-25T10:38:45;99706.60;;;12.89;54.37
77603;BME280;66771;52.434;17.056;2023-04-25T10:41:14;99704.14;;;13.08;54.50
77603;BME280;66771;52.434;17.056;2023-04-25T10:43:45;99704.28;;;13.22;54.31
77603;BME280;66771;52.434;17.056;2023-04-25T10:46:22;99703.81;;;13.31;53.90
77603;BME280;66771;52.434;17.056;2023-04-25T10:51:29;99700.05;;;13.51;53.58
77603;BME280;66771;52.434;17.056;2023-04-25T10:54:00;99697.70;;;13.54;53.14
77603;BME280;66771;52.434;17.056;2023-04-25T10:56:31;99701.98;;;13.55;52.51
77603;BME280;66771;52.434;17.056;2023-04-25T10:59:15;99707.05;;;13.50;51.81
77603;BME280;66771;52.434;17.056;2023-04-25T11:01:52;99706.41;;;13.30;52.00
77603;BME280;66771;52.434;17.056;2023-04-25T11:09:24;99701.28;;;13.06;52.42
77603;BME280;66771;52.434;17.056;2023-04-25T11:11:55;99704.89;;;12.88;52.66
77603;BME280;66771;52.434;17.056;2023-04-25T11:14:22;99704.04;;;12.71;52.67
77603;BME280;66771;52.434;17.056;2023-04-25T11:16:59;99698.14;;;12.60;53.22
77603;BME280;66771;52.434;17.056;2023-04-25T11:19:26;99697.40;;;12.64;53.67
77603;BME280;66771;52.434;17.056;2023-04-25T11:21:57;99695.88;;;12.72;53.34
77603;BME280;66771;52.434;17.056;2023-04-25T11:24:32;99700.06;;;12.98;53.80
77603;BME280;66771;52.434;17.056;2023-04-25T11:27:01;99701.33;;;13.34;52.57
77603;BME280;66771;52.434;17.056;2023-04-25T11:29:33;99700.59;;;13.56;52.18
77603;BME280;66771;52.434;17.056;2023-04-25T11:32:01;99706.67;;;13.88;51.54
77603;BME280;66771;52.434;17.056;2023-04-25T11:34:30;99704.42;;;14.22;50.73
77603;BME280;66771;52.434;17.056;2023-04-25T11:36:57;99708.09;;;14.50;50.97
77603;BME280;66771;52.434;17.056;2023-04-25T11:39:25;99706.80;;;14.79;51.13
77603;BME280;66771;52.434;17.056;2023-04-25T11:41:53;99708.26;;;14.98;50.04
77603;BME280;66771;52.434;17.056;2023-04-25T11:44:21;99711.80;;;15.14;49.68
77603;BME280;66771;52.434;17.056;2023-04-25T11:46:48;99705.71;;;15.16;48.47
77603;BME280;66771;52.434;17.056;2023-04-25T11:49:15;99704.77;;;15.19;48.53
77603;BME280;66771;52.434;17.056;2023-04-25T11:51:45;99707.79;;;15.11;47.28
77603;BME280;66771;52.434;17.056;2023-04-25T11:54:13;99708.95;;;14.90;47.65
77603;BME280;66771;52.434;17.056;2023-04-25T11:56:41;99709.37;;;14.68;47.81
77603;BME280;66771;52.434;17.056;2023-04-25T11:59:08;99713.87;;;14.49;48.12
77603;BME280;66771;52.434;17.056;2023-04-25T12:01:37;99716.04;;;14.24;47.97
77603;BME280;66771;52.434;17.056;2023-04-25T12:04:24;99716.45;;;14.06;48.61
77603;BME280;66771;52.434;17.056;2023-04-25T12:06:54;99711.62;;;13.85;48.57
77603;BME280;66771;52.434;17.056;2023-04-25T12:09:28;99713.08;;;13.66;49.24
77603;BME280;66771;52.434;17.056;2023-04-25T12:11:57;99717.14;;;13.48;48.94
77603;BME280;66771;52.434;17.056;2023-04-25T12:14:32;99718.48;;;13.26;49.33
77603;BME280;66771;52.434;17.056;2023-04-25T12:17:01;99719.29;;;13.08;50.17
77603;BME280;66771;52.434;17.056;2023-04-25T12:19:33;99723.87;;;12.93;50.82
77603;BME280;66771;52.434;17.056;2023-04-25T12:22:01;99725.72;;;12.81;51.15
77603;BME280;66771;52.434;17.056;2023-04-25T12:24:29;99724.13;;;12.73;51.28
77603;BME280;66771;52.434;17.056;2023-04-25T12:27:04;99726.85;;;12.69;51.68
77603;BME280;66771;52.434;17.056;2023-04-25T12:29:33;99729.65;;;12.64;51.93
77603;BME280;66771;52.434;17.056;2023-04-25T12:32:00;99732.85;;;12.52;52.09
77603;BME280;66771;52.434;17.056;2023-04-25T12:34:28;99735.52;;;12.46;52.64
77603;BME280;66771;52.434;17.056;2023-04-25T12:36:55;99732.91;;;12.48;53.12
77603;BME280;66771;52.434;17.056;2023-04-25T12:39:24;99736.98;;;12.62;53.71
77603;BME280;66771;52.434;17.056;2023-04-25T12:41:54;99732.84;;;12.81;53.76
77603;BME280;66771;52.434;17.056;2023-04-25T12:44:21;99734.30;;;13.03;53.04
77603;BME280;66771;52.434;17.056;2023-04-25T12:46:48;99732.73;;;13.14;53.02
77603;BME280;66771;52.434;17.056;2023-04-25T12:49:15;99733.58;;;13.21;52.46
77603;BME280;66771;52.434;17.056;2023-04-25T12:51:42;99736.44;;;13.26;52.79
77603;BME280;66771;52.434;17.056;2023-04-25T12:54:09;99734.18;;;13.31;52.24
77603;BME280;66771;52.434;17.056;2023-04-25T12:56:36;99734.30;;;13.34;52.21
77603;BME280;66771;52.434;17.056;2023-04-25T12:59:03;99737.48;;;13.49;52.07
77603;BME280;66771;52.434;17.056;2023-04-25T13:01:30;99736.36;;;13.66;51.26
77603;BME280;66771;52.434;17.056;2023-04-25T13:03:56;99738.00;;;13.80;50.43
77603;BME280;66771;52.434;17.056;2023-04-25T13:06:23;99733.70;;;14.02;50.75
77603;BME280;66771;52.434;17.056;2023-04-25T13:08:50;99732.40;;;14.19;50.25
77603;BME280;66771;52.434;17.056;2023-04-25T13:11:17;99729.45;;;14.31;50.27
77603;BME280;66771;52.434;17.056;2023-04-25T13:13:44;99732.71;;;14.48;50.11
77603;BME280;66771;52.434;17.056;2023-04-25T13:16:11;99732.55;;;14.62;49.81
77603;BME280;66771;52.434;17.056;2023-04-25T13:18:40;99726.93;;;14.69;49.87
77603;BME280;66771;52.434;17.056;2023-04-25T13:21:09;99733.96;;;14.49;49.25
77603;BME280;66771;52.434;17.056;2023-04-25T13:23:37;99730.66;;;14.24;50.36
77603;BME280;66771;52.434;17.056;2023-04-25T13:26:03;99732.98;;;14.12;50.74
77603;BME280;66771;52.434;17.056;2023-04-25T13:28:30;99731.86;;;13.99;50.46